Airport View

Enter AWOS ICAO identifier for current METAR.

ex. KFNL

KTYS 041353Z 28003KT 10SM FEW035 FEW250 27/20 A2999 RMK AO2 SLP140 T02720200

4 Jul 2020 14:08

Phone: 865-981-4053

Other Area AWOS: KDKX - KOQT - KGKT - KMNV

TAF KTYS 041122Z 0412/0512 VRB03KT P6SM FEW045 FM050900 00000KT P6SM BKN050